sensor_id;sensor_type;location;lat;lon;timestamp;pressure;altitude;pressure_sealevel;temperature;humidity
64362;BME280;50685;53.346;-6.296;2022-12-20T00:10:27;99593.97;;;7.67;73.93
64362;BME280;50685;53.346;-6.296;2022-12-20T00:12:54;99601.72;;;7.75;73.61
64362;BME280;50685;53.346;-6.296;2022-12-20T02:06:50;99606.34;;;8.06;74.78
64362;BME280;50685;53.346;-6.296;2022-12-20T03:05:02;99594.13;;;7.58;77.14
64362;BME280;50685;53.346;-6.296;2022-12-20T03:10:44;99603.03;;;7.54;77.21
64362;BME280;50685;53.346;-6.296;2022-12-20T03:13:30;99596.84;;;7.55;77.02
64362;BME280;50685;53.346;-6.296;2022-12-20T03:15:55;99598.56;;;7.58;76.88
64362;BME280;50685;53.346;-6.296;2022-12-20T03:18:23;99602.00;;;7.61;76.82
64362;BME280;50685;53.346;-6.296;2022-12-20T03:20:49;99605.50;;;7.63;76.51
64362;BME280;50685;53.346;-6.296;2022-12-20T03:23:17;99600.19;;;7.65;76.64
64362;BME280;50685;53.346;-6.296;2022-12-20T04:28:15;99629.69;;;7.38;79.33
64362;BME280;50685;53.346;-6.296;2022-12-20T04:30:41;99640.34;;;7.34;79.31
64362;BME280;50685;53.346;-6.296;2022-12-20T04:41:39;99635.94;;;7.34;79.42
64362;BME280;50685;53.346;-6.296;2022-12-20T04:52:40;99634.38;;;7.22;79.12
64362;BME280;50685;53.346;-6.296;2022-12-20T04:58:13;99666.91;;;7.23;78.46
64362;BME280;50685;53.346;-6.296;2022-12-20T05:00:50;99644.84;;;7.27;77.99
64362;BME280;50685;53.346;-6.296;2022-12-20T05:03:25;99656.28;;;7.26;77.81
64362;BME280;50685;53.346;-6.296;2022-12-20T05:05:51;99674.78;;;7.24;77.79
64362;BME280;50685;53.346;-6.296;2022-12-20T05:08:16;99674.78;;;7.24;77.70
64362;BME280;50685;53.346;-6.296;2022-12-20T05:40:57;99679.41;;;7.10;79.75
64362;BME280;50685;53.346;-6.296;2022-12-20T05:46:18;99689.09;;;7.10;79.58
64362;BME280;50685;53.346;-6.296;2022-12-20T05:48:51;99686.47;;;7.10;79.44
64362;BME280;50685;53.346;-6.296;2022-12-20T05:51:24;99692.59;;;7.10;79.57
64362;BME280;50685;53.346;-6.296;2022-12-20T05:56:58;99697.00;;;7.10;79.32
64362;BME280;50685;53.346;-6.296;2022-12-20T06:02:11;99705.88;;;7.04;79.54
64362;BME280;50685;53.346;-6.296;2022-12-20T06:04:36;99700.63;;;7.02;79.31
64362;BME280;50685;53.346;-6.296;2022-12-20T06:07:02;99703.25;;;7.04;79.32
64362;BME280;50685;53.346;-6.296;2022-12-20T06:09:46;99704.16;;;7.01;79.39
64362;BME280;50685;53.346;-6.296;2022-12-20T06:18:27;99705.19;;;6.93;79.13
64362;BME280;50685;53.346;-6.296;2022-12-20T06:20:52;99704.31;;;6.92;78.92
64362;BME280;50685;53.346;-6.296;2022-12-20T06:23:18;99702.56;;;6.91;78.81
64362;BME280;50685;53.346;-6.296;2022-12-20T06:25:55;99708.78;;;6.88;78.84
64362;BME280;50685;53.346;-6.296;2022-12-20T06:28:28;99700.91;;;6.85;78.81
64362;BME280;50685;53.346;-6.296;2022-12-20T06:30:57;99701.84;;;6.81;78.82
64362;BME280;50685;53.346;-6.296;2022-12-20T06:33:26;99708.00;;;6.80;78.65
64362;BME280;50685;53.346;-6.296;2022-12-20T06:35:52;99703.63;;;6.79;78.52
64362;BME280;50685;53.346;-6.296;2022-12-20T06:38:23;99713.31;;;6.79;78.64
64362;BME280;50685;53.346;-6.296;2022-12-20T06:56:04;99713.47;;;6.68;79.26
64362;BME280;50685;53.346;-6.296;2022-12-20T06:58:33;99731.91;;;6.68;79.26
64362;BME280;50685;53.346;-6.296;2022-12-20T07:01:17;99718.66;;;6.71;79.88
64362;BME280;50685;53.346;-6.296;2022-12-20T07:08:53;99724.78;;;6.73;79.96
64362;BME280;50685;53.346;-6.296;2022-12-20T07:14:03;99736.19;;;6.73;79.85
64362;BME280;50685;53.346;-6.296;2022-12-20T08:09:21;99802.47;;;6.44;78.19
64362;BME280;50685;53.346;-6.296;2022-12-20T08:11:47;99800.72;;;6.41;78.13
64362;BME280;50685;53.346;-6.296;2022-12-20T08:14:13;99815.66;;;6.41;78.08
64362;BME280;50685;53.346;-6.296;2022-12-20T08:16:39;99805.97;;;6.41;77.55
64362;BME280;50685;53.346;-6.296;2022-12-20T08:19:07;99818.25;;;6.42;77.25
64362;BME280;50685;53.346;-6.296;2022-12-20T08:21:33;99817.44;;;6.40;77.60
64362;BME280;50685;53.346;-6.296;2022-12-20T08:24:01;99836.78;;;6.38;77.45
64362;BME280;50685;53.346;-6.296;2022-12-20T08:26:32;99827.13;;;6.37;77.42
64362;BME280;50685;53.346;-6.296;2022-12-20T08:29:30;99837.66;;;6.37;77.15
64362;BME280;50685;53.346;-6.296;2022-12-20T08:31:56;99840.28;;;6.37;77.50
64362;BME280;50685;53.346;-6.296;2022-12-20T08:37:31;99839.44;;;6.32;76.91
64362;BME280;50685;53.346;-6.296;2022-12-20T08:40:00;99829.81;;;6.32;76.98
64362;BME280;50685;53.346;-6.296;2022-12-20T08:42:30;99846.47;;;6.34;76.29
64362;BME280;50685;53.346;-6.296;2022-12-20T08:44:58;99836.81;;;6.33;76.43
64362;BME280;50685;53.346;-6.296;2022-12-20T08:47:29;99857.88;;;6.32;76.43
64362;BME280;50685;53.346;-6.296;2022-12-20T08:49:58;99850.00;;;6.30;76.18
64362;BME280;50685;53.346;-6.296;2022-12-20T08:52:23;99853.50;;;6.32;75.35
64362;BME280;50685;53.346;-6.296;2022-12-20T08:54:49;99859.63;;;6.34;74.95
64362;BME280;50685;53.346;-6.296;2022-12-20T08:57:14;99858.75;;;6.34;75.25
64362;BME280;50685;53.346;-6.296;2022-12-20T09:05:47;99876.25;;;6.39;73.53
64362;BME280;50685;53.346;-6.296;2022-12-20T09:08:14;99862.19;;;6.40;73.56
64362;BME280;50685;53.346;-6.296;2022-12-20T09:10:47;99870.97;;;6.41;72.95
64362;BME280;50685;53.346;-6.296;2022-12-20T09:13:12;99880.63;;;6.40;73.15
64362;BME280;50685;53.346;-6.296;2022-12-20T09:15:40;99871.88;;;6.38;72.69
64362;BME280;50685;53.346;-6.296;2022-12-20T09:18:07;99878.88;;;6.41;71.85
64362;BME280;50685;53.346;-6.296;2022-12-20T09:20:33;99872.69;;;6.43;72.08
64362;BME280;50685;53.346;-6.296;2022-12-20T09:23:01;99874.47;;;6.43;72.19
64362;BME280;50685;53.346;-6.296;2022-12-20T09:25:27;99870.97;;;6.41;71.98
64362;BME280;50685;53.346;-6.296;2022-12-20T09:27:53;99870.06;;;6.42;72.09
64362;BME280;50685;53.346;-6.296;2022-12-20T09:30:22;99880.63;;;6.42;72.24
64362;BME280;50685;53.346;-6.296;2022-12-20T09:32:57;99873.59;;;6.41;71.46
64362;BME280;50685;53.346;-6.296;2022-12-20T09:35:25;99882.34;;;6.41;71.61
64362;BME280;50685;53.346;-6.296;2022-12-20T10:18:25;99944.41;;;7.44;66.84
64362;BME280;50685;53.346;-6.296;2022-12-20T10:21:10;99929.50;;;7.39;66.48
64362;BME280;50685;53.346;-6.296;2022-12-20T10:26:25;99956.94;;;7.26;66.37
64362;BME280;50685;53.346;-6.296;2022-12-20T10:28:54;99955.00;;;7.40;65.58
64362;BME280;50685;53.346;-6.296;2022-12-20T10:31:25;99948.53;;;7.63;64.69
64362;BME280;50685;53.346;-6.296;2022-12-20T10:34:00;99946.44;;;7.84;63.97
64362;BME280;50685;53.346;-6.296;2022-12-20T10:36:32;99947.88;;;8.07;63.13
64362;BME280;50685;53.346;-6.296;2022-12-20T10:39:08;99949.34;;;8.23;62.63
64362;BME280;50685;53.346;-6.296;2022-12-20T10:44:29;99943.69;;;8.45;61.72
64362;BME280;50685;53.346;-6.296;2022-12-20T11:07:37;99925.72;;;9.52;58.75
64362;BME280;50685;53.346;-6.296;2022-12-20T11:10:53;99944.03;;;9.62;56.90
64362;BME280;50685;53.346;-6.296;2022-12-20T11:13:28;99944.25;;;9.89;57.59
64362;BME280;50685;53.346;-6.296;2022-12-20T11:21:46;99928.38;;;9.09;58.04
64362;BME280;50685;53.346;-6.296;2022-12-20T12:03:52;99938.63;;;9.65;56.15
64362;BME280;50685;53.346;-6.296;2022-12-20T12:06:26;99929.03;;;9.61;55.70
64362;BME280;50685;53.346;-6.296;2022-12-20T12:09:11;99919.44;;;9.56;56.05
64362;BME280;50685;53.346;-6.296;2022-12-20T12:11:39;99924.94;;;9.48;55.98
64362;BME280;50685;53.346;-6.296;2022-12-20T12:14:05;99926.94;;;9.37;56.72
64362;BME280;50685;53.346;-6.296;2022-12-20T12:16:39;99921.84;;;9.27;57.31
64362;BME280;50685;53.346;-6.296;2022-12-20T12:19:09;99911.25;;;9.27;57.06
64362;BME280;50685;53.346;-6.296;2022-12-20T12:21:48;99910.31;;;9.30;57.49
64362;BME280;50685;53.346;-6.296;2022-12-20T12:24:26;99905.81;;;9.33;57.76
64362;BME280;50685;53.346;-6.296;2022-12-20T12:26:54;99906.03;;;9.24;57.50
64362;BME280;50685;53.346;-6.296;2022-12-20T12:29:24;99887.53;;;9.23;57.76
64362;BME280;50685;53.346;-6.296;2022-12-20T12:32:13;99897.53;;;9.10;58.01
64362;BME280;50685;53.346;-6.296;2022-12-20T12:37:45;99903.97;;;8.96;58.38
64362;BME280;50685;53.346;-6.296;2022-12-20T12:40:35;99899.28;;;9.09;57.88
64362;BME280;50685;53.346;-6.296;2022-12-20T12:46:01;99914.66;;;9.32;57.17
64362;BME280;50685;53.346;-6.296;2022-12-20T12:48:44;99911.50;;;9.56;56.52
64362;BME280;50685;53.346;-6.296;2022-12-20T12:51:11;99909.41;;;9.70;55.88
64362;BME280;50685;53.346;-6.296;2022-12-20T12:54:13;99904.69;;;9.83;54.94
64362;BME280;50685;53.346;-6.296;2022-12-20T12:56:39;99896.16;;;10.08;53.61
64362;BME280;50685;53.346;-6.296;2022-12-20T13:07:27;99906.28;;;10.61;50.81
64362;BME280;50685;53.346;-6.296;2022-12-20T13:09:53;99887.97;;;10.83;50.87
64362;BME280;50685;53.346;-6.296;2022-12-20T13:20:28;99899.44;;;11.15;47.95
64362;BME280;50685;53.346;-6.296;2022-12-20T13:38:42;99905.03;;;11.64;46.86
64362;BME280;50685;53.346;-6.296;2022-12-20T13:47:30;99903.66;;;11.79;46.54
64362;BME280;50685;53.346;-6.296;2022-12-20T13:51:07;99895.50;;;11.85;47.09
64362;BME280;50685;53.346;-6.296;2022-12-20T13:56:41;99899.66;;;11.66;46.45
64362;BME280;50685;53.346;-6.296;2022-12-20T14:02:03;99897.91;;;11.65;46.74
64362;BME280;50685;53.346;-6.296;2022-12-20T14:04:41;99903.13;;;11.68;47.10
64362;BME280;50685;53.346;-6.296;2022-12-20T14:07:08;99894.59;;;11.58;46.64
64362;BME280;50685;53.346;-6.296;2022-12-20T14:09:38;99899.47;;;11.44;46.76
64362;BME280;50685;53.346;-6.296;2022-12-20T14:12:10;99903.16;;;11.38;47.25
64362;BME280;50685;53.346;-6.296;2022-12-20T14:14:43;99904.47;;;11.24;46.66
64362;BME280;50685;53.346;-6.296;2022-12-20T14:17:30;99898.22;;;11.27;47.05
64362;BME280;50685;53.346;-6.296;2022-12-20T14:20:15;99906.63;;;11.12;46.74
64362;BME280;50685;53.346;-6.296;2022-12-20T14:25:29;99898.75;;;10.09;49.52
64362;BME280;50685;53.346;-6.296;2022-12-20T14:27:55;99909.13;;;9.83;49.32
64362;BME280;50685;53.346;-6.296;2022-12-20T14:30:32;99892.44;;;9.79;49.72
64362;BME280;50685;53.346;-6.296;2022-12-20T14:32:58;99909.56;;;10.00;49.01
64362;BME280;50685;53.346;-6.296;2022-12-20T14:38:28;99906.66;;;10.11;49.64
64362;BME280;50685;53.346;-6.296;2022-12-20T14:40:54;99916.72;;;9.96;49.28
64362;BME280;50685;53.346;-6.296;2022-12-20T14:43:27;99909.75;;;9.92;50.10
64362;BME280;50685;53.346;-6.296;2022-12-20T14:48:43;99920.84;;;9.72;50.58
64362;BME280;50685;53.346;-6.296;2022-12-20T14:51:09;99923.03;;;9.53;51.59
64362;BME280;50685;53.346;-6.296;2022-12-20T14:53:34;99938.38;;;9.37;52.34
64362;BME280;50685;53.346;-6.296;2022-12-20T14:56:01;99944.16;;;9.14;53.06
64362;BME280;50685;53.346;-6.296;2022-12-20T14:58:28;99938.22;;;9.03;53.39
64362;BME280;50685;53.346;-6.296;2022-12-20T15:01:01;99946.31;;;8.95;53.32
64362;BME280;50685;53.346;-6.296;2022-12-20T15:03:27;99940.31;;;8.87;53.48
64362;BME280;50685;53.346;-6.296;2022-12-20T15:05:54;99945.75;;;8.79;53.89
64362;BME280;50685;53.346;-6.296;2022-12-20T15:08:24;99947.59;;;8.74;54.32
64362;BME280;50685;53.346;-6.296;2022-12-20T15:13:19;99953.72;;;8.76;54.21
64362;BME280;50685;53.346;-6.296;2022-12-20T15:15:45;99953.97;;;8.63;54.20
64362;BME280;50685;53.346;-6.296;2022-12-20T15:18:14;99969.97;;;8.56;54.57
64362;BME280;50685;53.346;-6.296;2022-12-20T15:20:40;99969.16;;;8.52;55.48
64362;BME280;50685;53.346;-6.296;2022-12-20T15:23:09;99968.41;;;8.42;55.68
64362;BME280;50685;53.346;-6.296;2022-12-20T15:25:37;99973.72;;;8.39;55.93
64362;BME280;50685;53.346;-6.296;2022-12-20T15:28:11;99971.16;;;8.36;56.43
64362;BME280;50685;53.346;-6.296;2022-12-20T15:30:37;99966.81;;;8.33;57.03
64362;BME280;50685;53.346;-6.296;2022-12-20T15:33:02;99979.22;;;8.27;57.61
64362;BME280;50685;53.346;-6.296;2022-12-20T15:35:28;99972.28;;;8.19;58.01
64362;BME280;50685;53.346;-6.296;2022-12-20T15:37:54;99968.00;;;8.14;58.24
64362;BME280;50685;53.346;-6.296;2022-12-20T15:40:19;99968.94;;;8.11;58.62
64362;BME280;50685;53.346;-6.296;2022-12-20T15:42:44;99970.75;;;8.08;58.99
64362;BME280;50685;53.346;-6.296;2022-12-20T15:45:11;99976.13;;;8.00;59.09
64362;BME280;50685;53.346;-6.296;2022-12-20T15:47:37;99976.28;;;7.91;59.64
64362;BME280;50685;53.346;-6.296;2022-12-20T15:53:30;99981.66;;;7.84;60.11
64362;BME280;50685;53.346;-6.296;2022-12-20T15:55:58;99987.84;;;7.82;60.12
64362;BME280;50685;53.346;-6.296;2022-12-20T15:58:29;99989.72;;;7.74;60.42
64362;BME280;50685;53.346;-6.296;2022-12-20T16:00:57;99994.22;;;7.65;60.87
64362;BME280;50685;53.346;-6.296;2022-12-20T16:03:33;100001.34;;;7.60;60.88
64362;BME280;50685;53.346;-6.296;2022-12-20T16:05:59;99994.31;;;7.59;60.81
64362;BME280;50685;53.346;-6.296;2022-12-20T16:08:33;100006.69;;;7.55;60.72
64362;BME280;50685;53.346;-6.296;2022-12-20T16:11:16;100013.75;;;7.53;60.83
64362;BME280;50685;53.346;-6.296;2022-12-20T16:16:52;100005.00;;;7.48;60.54
64362;BME280;50685;53.346;-6.296;2022-12-20T17:46:44;100031.38;;;6.70;60.92
64362;BME280;50685;53.346;-6.296;2022-12-20T17:49:11;100034.00;;;6.67;61.22
64362;BME280;50685;53.346;-6.296;2022-12-20T17:51:52;100036.63;;;6.70;60.67
64362;BME280;50685;53.346;-6.296;2022-12-20T18:02:22;100046.34;;;6.67;61.71
64362;BME280;50685;53.346;-6.296;2022-12-20T18:04:55;100056.88;;;6.67;61.89
64362;BME280;50685;53.346;-6.296;2022-12-20T18:07:20;100042.81;;;6.65;61.90
64362;BME280;50685;53.346;-6.296;2022-12-20T18:09:46;100034.94;;;6.63;62.50
64362;BME280;50685;53.346;-6.296;2022-12-20T18:12:12;100036.72;;;6.61;62.77
64362;BME280;50685;53.346;-6.296;2022-12-20T18:14:37;100043.75;;;6.57;62.96
64362;BME280;50685;53.346;-6.296;2022-12-20T18:17:02;100040.25;;;6.58;62.72
64362;BME280;50685;53.346;-6.296;2022-12-20T18:19:30;100056.06;;;6.60;62.93
64362;BME280;50685;53.346;-6.296;2022-12-20T18:24:59;100044.63;;;6.63;63.18
64362;BME280;50685;53.346;-6.296;2022-12-20T18:27:27;100043.75;;;6.61;63.23
64362;BME280;50685;53.346;-6.296;2022-12-20T18:29:57;100051.66;;;6.57;63.22
64362;BME280;50685;53.346;-6.296;2022-12-20T18:32:22;100036.72;;;6.61;62.86
64362;BME280;50685;53.346;-6.296;2022-12-20T18:34:48;100036.69;;;6.66;62.83
64362;BME280;50685;53.346;-6.296;2022-12-20T18:37:13;100036.66;;;6.69;62.84
64362;BME280;50685;53.346;-6.296;2022-12-20T18:39:38;100056.88;;;6.67;63.12
64362;BME280;50685;53.346;-6.296;2022-12-20T18:42:04;100048.94;;;6.68;63.13
64362;BME280;50685;53.346;-6.296;2022-12-20T18:44:29;100045.41;;;6.71;62.77
64362;BME280;50685;53.346;-6.296;2022-12-20T18:46:59;100030.47;;;6.71;62.87
64362;BME280;50685;53.346;-6.296;2022-12-20T18:49:25;100036.59;;;6.73;62.87
64362;BME280;50685;53.346;-6.296;2022-12-20T18:51:51;100019.91;;;6.74;62.66
64362;BME280;50685;53.346;-6.296;2022-12-20T19:04:51;100003.91;;;6.91;61.58
64362;BME280;50685;53.346;-6.296;2022-12-20T19:07:23;100017.13;;;6.90;61.42
64362;BME280;50685;53.346;-6.296;2022-12-20T19:09:48;100015.34;;;6.92;61.39
64362;BME280;50685;53.346;-6.296;2022-12-20T19:12:13;100007.44;;;6.90;61.41
64362;BME280;50685;53.346;-6.296;2022-12-20T19:14:39;100011.03;;;6.85;61.73
